KSBY

Salisbury-Ocean City Wicomico Regional Airport

Salisbury, Maryland, USA
METAR KSBY 250454Z AUTO 19003KT 10SM CLR 17/14 A3015 RMK AO2 SLP211 T01670139 402890144
Observed Flight Rules
May-25 @ 04:54 UTC (31 minutes ago) Visual Flight Rules
Wind Visibility Clouds
190° at 3 knots 10 miles
  • Clear skies
Temperatures Readings
Current 17°C / 63°F
Dewpoint 14°C / 57°F
Humidity 83%
Altimeter 30.15" Hg
Pressure 1021.1 hPa
Elevation 19
METAR KSBY 250454Z AUTO 19003KT 10SM CLR 17/14 A3015 RMK AO2 SLP211 T01670139 402890144
Observed Flight Rules
May-25 @ 04:54 UTC
(31 minutes ago)
VFR
Wind Visibility
190° at 3 knots 10 miles
Clouds
  • Clear skies
Temperature Dewpoint
17°C / 63°F 14°C / 57°F
Humidity Altimeter Pressure
83% 30.15" Hg 1021.1 hPa